createdAt,value
2017-04-06T00:02:10.461Z,0
2017-04-06T00:03:20.854Z,0
2017-04-06T00:04:31.199Z,0
2017-04-06T00:05:41.527Z,0
2017-04-06T00:06:51.864Z,0
2017-04-06T00:08:01.938Z,0
2017-04-06T00:09:12.269Z,0
2017-04-06T00:10:22.603Z,0
2017-04-06T00:11:32.622Z,0
2017-04-06T00:12:42.941Z,0
2017-04-06T00:13:53.281Z,0
2017-04-06T00:15:03.321Z,0
2017-04-06T00:16:13.681Z,0
2017-04-06T00:17:24.006Z,0
2017-04-06T00:18:34.035Z,0
2017-04-06T00:19:44.046Z,0
2017-04-06T00:20:54.373Z,0
2017-04-06T00:22:04.721Z,0
2017-04-06T00:23:15.055Z,0
2017-04-06T00:24:25.391Z,0
2017-04-06T00:25:35.726Z,0
2017-04-06T00:26:46.063Z,0
2017-04-06T00:27:56.091Z,0
2017-04-06T00:29:06.426Z,0
2017-04-06T00:30:16.768Z,0
2017-04-06T00:31:27.139Z,0
2017-04-06T00:32:37.486Z,0
2017-04-06T00:33:47.811Z,0
2017-04-06T00:34:58.146Z,0
2017-04-06T00:36:08.464Z,0
2017-04-06T00:37:18.791Z,0
2017-04-06T00:38:29.114Z,0
2017-04-06T00:39:39.130Z,0
2017-04-06T00:40:49.485Z,0
2017-04-06T00:41:59.822Z,0
2017-04-06T00:43:10.203Z,0
2017-04-06T00:44:20.234Z,0
2017-04-06T00:45:30.262Z,0
2017-04-06T00:46:40.618Z,0
2017-04-06T00:47:50.954Z,0
2017-04-06T00:49:01.300Z,0
2017-04-06T00:50:11.645Z,0
2017-04-06T00:51:22.024Z,0
2017-04-06T00:52:32.358Z,0
2017-04-06T00:53:42.696Z,0
2017-04-06T00:54:52.727Z,0
2017-04-06T00:56:02.753Z,0
2017-04-06T00:57:13.120Z,0
2017-04-06T00:58:22.816Z,0
2017-04-06T00:59:33.146Z,0
2017-04-06T01:00:43.506Z,0
2017-04-06T01:01:53.542Z,0
2017-04-06T01:03:03.881Z,0
2017-04-06T01:04:14.212Z,0
2017-04-06T01:05:24.543Z,0
2017-04-06T01:06:34.889Z,0
2017-04-06T01:07:45.237Z,0
2017-04-06T01:08:55.566Z,0
2017-04-06T01:10:05.911Z,0
2017-04-06T01:11:16.239Z,0
2017-04-06T01:12:26.565Z,0
2017-04-06T01:13:36.899Z,0
2017-04-06T01:14:47.225Z,0
2017-04-06T01:15:57.560Z,0
2017-04-06T01:17:07.909Z,0
2017-04-06T01:18:18.239Z,0
2017-04-06T01:19:28.253Z,0
2017-04-06T01:20:38.583Z,0
2017-04-06T01:21:48.910Z,0
2017-04-06T01:22:58.916Z,0
2017-04-06T01:24:08.614Z,0
2017-04-06T01:25:18.950Z,0
2017-04-06T01:26:29.268Z,0
2017-04-06T01:27:39.594Z,0
2017-04-06T01:28:49.600Z,0
2017-04-06T01:29:59.629Z,0
2017-04-06T01:31:09.963Z,0
2017-04-06T01:32:20.289Z,0
2017-04-06T01:33:30.622Z,0
2017-04-06T01:34:40.635Z,0
2017-04-06T01:35:50.665Z,0
2017-04-06T01:37:00.711Z,0
2017-04-06T01:38:11.045Z,0
2017-04-06T01:39:21.064Z,0
2017-04-06T01:40:31.394Z,0
2017-04-06T01:41:41.718Z,0
2017-04-06T01:42:52.062Z,0
2017-04-06T01:44:02.076Z,0
2017-04-06T01:45:11.793Z,0
2017-04-06T01:46:21.800Z,0
2017-04-06T01:47:31.504Z,0
2017-04-06T01:48:41.828Z,0
2017-04-06T01:49:52.141Z,0
2017-04-06T01:51:02.164Z,0
2017-04-06T01:52:12.488Z,0
2017-04-06T01:53:22.832Z,0
2017-04-06T01:54:33.170Z,0
2017-04-06T01:55:43.506Z,0
2017-04-06T01:56:53.201Z,0
2017-04-06T01:58:03.227Z,0
2017-04-06T01:59:13.247Z,0
2017-04-06T02:00:23.571Z,0
2017-04-06T02:01:33.908Z,0
2017-04-06T02:02:43.944Z,0
2017-04-06T02:03:53.968Z,0
2017-04-06T02:05:04.025Z,0
2017-04-06T02:06:14.356Z,0
2017-04-06T02:07:24.701Z,0
2017-04-06T02:08:34.735Z,0
2017-04-06T02:09:45.071Z,0
2017-04-06T02:10:55.082Z,0
2017-04-06T02:12:05.423Z,0
2017-04-06T02:13:15.493Z,0
2017-04-06T02:14:25.822Z,0
2017-04-06T02:15:35.913Z,0
2017-04-06T02:16:46.241Z,0
2017-04-06T02:17:56.586Z,0
2017-04-06T02:19:06.929Z,0
2017-04-06T02:20:16.950Z,0
2017-04-06T02:21:27.287Z,0
2017-04-06T02:22:37.610Z,0
2017-04-06T02:23:47.933Z,0
2017-04-06T02:24:58.282Z,0
2017-04-06T02:26:08.614Z,0
2017-04-06T02:27:18.658Z,0
2017-04-06T02:28:28.984Z,0
2017-04-06T02:29:38.995Z,0
2017-04-06T02:30:49.012Z,0
2017-04-06T02:31:59.030Z,0
2017-04-06T02:33:09.351Z,0
2017-04-06T02:34:19.387Z,0
2017-04-06T02:35:29.722Z,0
2017-04-06T02:36:39.746Z,0
2017-04-06T02:37:50.063Z,0
2017-04-06T02:39:00.383Z,0
2017-04-06T02:40:10.710Z,0
2017-04-06T02:41:20.723Z,0
2017-04-06T02:42:31.056Z,0
2017-04-06T02:43:41.426Z,0
2017-04-06T02:44:51.758Z,0
2017-04-06T02:46:02.096Z,0
2017-04-06T02:47:12.447Z,0
2017-04-06T02:48:22.774Z,0
2017-04-06T02:49:33.096Z,0
2017-04-06T02:50:43.140Z,0
2017-04-06T02:51:53.177Z,0
2017-04-06T02:53:03.194Z,0
2017-04-06T02:54:13.777Z,0
2017-04-06T02:55:24.107Z,0
2017-04-06T02:56:34.479Z,0
2017-04-06T02:57:44.814Z,0
2017-04-06T02:58:55.144Z,0
2017-04-06T03:00:05.481Z,0
2017-04-06T03:01:15.827Z,0
2017-04-06T03:32:51.698Z,0
2017-04-06T03:34:02.039Z,0
2017-04-06T03:35:12.043Z,0
2017-04-06T03:36:22.371Z,0
2017-04-06T03:37:32.382Z,0
2017-04-06T03:38:42.711Z,0
2017-04-06T03:39:52.743Z,0
2017-04-06T03:41:02.777Z,0
2017-04-06T03:42:13.107Z,0
2017-04-06T03:43:23.440Z,0
2017-04-06T03:44:33.460Z,0
2017-04-06T03:45:43.797Z,0
2017-04-06T03:46:54.127Z,0
2017-04-06T03:48:04.155Z,0
2017-04-06T03:49:14.491Z,0
2017-04-06T03:50:24.518Z,0
2017-04-06T03:51:34.844Z,0
2017-04-06T03:52:45.186Z,0
2017-04-06T03:53:55.515Z,0
2017-04-06T03:55:05.869Z,0
2017-04-06T03:56:15.951Z,4
2017-04-06T03:57:25.958Z,4
2017-04-06T03:58:36.357Z,4
2017-04-06T03:59:46.371Z,0
2017-04-06T04:00:56.703Z,4
2017-04-06T04:02:07.078Z,4
2017-04-06T04:03:17.087Z,4
2017-04-06T04:04:27.104Z,4
2017-04-06T04:05:37.434Z,8
2017-04-06T04:06:47.467Z,12
2017-04-06T04:07:57.504Z,12
2017-04-06T04:09:07.532Z,20
2017-04-06T04:10:17.551Z,20
2017-04-06T04:11:27.586Z,20
2017-04-06T04:12:37.939Z,20
2017-04-06T04:13:48.262Z,24
2017-04-06T04:14:58.618Z,24
2017-04-06T04:16:08.971Z,24
2017-04-06T04:17:18.698Z,28
2017-04-06T04:18:28.721Z,36
2017-04-06T04:19:39.063Z,48
2017-04-06T04:20:49.376Z,56
2017-04-06T04:21:59.395Z,68
2017-04-06T04:23:09.751Z,76
2017-04-06T04:24:19.474Z,84
2017-04-06T04:25:29.588Z,96
2017-04-06T04:26:39.917Z,100
2017-04-06T04:27:49.976Z,104
2017-04-06T04:29:00.004Z,100
2017-04-06T04:30:10.029Z,96
2017-04-06T04:31:20.038Z,96
2017-04-06T04:32:30.390Z,108
2017-04-06T04:33:40.717Z,124
2017-04-06T04:34:51.043Z,132
2017-04-06T04:36:01.394Z,148
2017-04-06T04:37:11.750Z,156
2017-04-06T04:38:22.074Z,168
2017-04-06T04:39:32.105Z,172
2017-04-06T04:40:42.456Z,188
2017-04-06T04:41:52.794Z,216
2017-04-06T04:43:02.818Z,244
2017-04-06T04:44:12.831Z,260
2017-04-06T04:45:23.165Z,280
2017-04-06T04:46:33.203Z,292
2017-04-06T04:47:43.218Z,308
2017-04-06T04:48:53.236Z,336
2017-04-06T04:50:03.586Z,368
2017-04-06T04:51:13.937Z,412
2017-04-06T04:52:24.301Z,464
2017-04-06T04:53:34.624Z,512
2017-04-06T04:54:44.937Z,584
2017-04-06T04:55:55.274Z,668
2017-04-06T04:57:05.650Z,792
2017-04-06T04:58:15.986Z,924
2017-04-06T04:59:26.006Z,1064
2017-04-06T05:00:36.031Z,1152
2017-04-06T05:01:46.391Z,1228
2017-04-06T05:02:56.405Z,1316
2017-04-06T05:04:06.427Z,1408
2017-04-06T05:05:16.758Z,1516
2017-04-06T05:06:27.075Z,1756
2017-04-06T05:07:36.792Z,3452
2017-04-06T05:08:46.805Z,4228
2017-04-06T05:09:56.815Z,4368
2017-04-06T05:11:07.143Z,4564
2017-04-06T05:12:17.533Z,4976
2017-04-06T05:13:27.890Z,5320
2017-04-06T05:14:37.586Z,5456
2017-04-06T05:15:47.944Z,5392
2017-04-06T05:16:58.306Z,5700
2017-04-06T05:18:08.645Z,5616
2017-04-06T05:19:18.648Z,5532
2017-04-06T05:20:28.975Z,4592
2017-04-06T05:21:39.313Z,3012
2017-04-06T05:22:49.644Z,2688
2017-04-06T05:23:59.965Z,2784
2017-04-06T05:25:10.303Z,2732
2017-04-06T05:26:20.630Z,2608
2017-04-06T05:27:30.649Z,2572
2017-04-06T05:28:41.006Z,2524
2017-04-06T05:29:50.713Z,2812
2017-04-06T05:31:01.049Z,2992
2017-04-06T05:32:11.069Z,3300
2017-04-06T05:33:21.396Z,3668
2017-04-06T05:34:31.737Z,4320
2017-04-06T05:35:42.088Z,4348
2017-04-06T05:36:52.107Z,4364
2017-04-06T05:38:02.465Z,4112
2017-04-06T05:39:12.820Z,3516
2017-04-06T05:40:23.153Z,3192
2017-04-06T05:41:33.176Z,3220
2017-04-06T05:42:43.534Z,3228
2017-04-06T05:43:53.865Z,3312
2017-04-06T05:45:04.182Z,3552
2017-04-06T05:46:14.210Z,3444
2017-04-06T05:47:24.599Z,3468
2017-04-06T05:48:34.637Z,4072
2017-04-06T05:49:44.649Z,5616
2017-04-06T05:50:54.992Z,6880
2017-04-06T05:52:05.023Z,6544
2017-04-06T05:53:15.370Z,5028
2017-04-06T05:54:25.416Z,3892
2017-04-06T05:55:35.436Z,3760
2017-04-06T05:56:45.770Z,4552
2017-04-06T05:57:56.101Z,5860
2017-04-06T05:59:06.133Z,6420
2017-04-06T06:00:16.487Z,5920
2017-04-06T06:01:26.824Z,4896
2017-04-06T06:02:37.148Z,4256
2017-04-06T06:03:47.475Z,4092
2017-04-06T06:04:57.806Z,4624
2017-04-06T06:06:08.145Z,5316
2017-04-06T06:07:18.167Z,5592
2017-04-06T06:08:28.514Z,5184
2017-04-06T06:09:38.534Z,4692
2017-04-06T06:10:48.564Z,4320
2017-04-06T06:11:58.882Z,4164
2017-04-06T06:13:08.894Z,4096
2017-04-06T06:14:18.919Z,4072
2017-04-06T06:15:28.941Z,4168
2017-04-06T06:16:39.267Z,4364
2017-04-06T06:17:49.600Z,4392
2017-04-06T06:18:59.923Z,4324
2017-04-06T06:20:09.943Z,4228
2017-04-06T06:21:19.961Z,4236
2017-04-06T06:22:30.289Z,4280
2017-04-06T06:23:40.308Z,4284
2017-04-06T06:24:50.640Z,4320
2017-04-06T06:26:00.664Z,4312
2017-04-06T06:27:10.691Z,4200
2017-04-06T06:28:21.064Z,4128
2017-04-06T06:29:31.392Z,4072
2017-04-06T06:30:41.742Z,4124
2017-04-06T06:31:51.776Z,4200
2017-04-06T06:33:02.113Z,4384
2017-04-06T06:34:12.185Z,4604
2017-04-06T06:35:22.524Z,4736
2017-04-06T06:36:32.540Z,4876
2017-04-06T06:37:42.886Z,5108
2017-04-06T06:38:53.223Z,5148
2017-04-06T06:40:03.604Z,5156
2017-04-06T06:41:13.934Z,5344
2017-04-06T06:42:23.955Z,5532
2017-04-06T06:43:33.663Z,5840
2017-04-06T06:44:44.004Z,6200
2017-04-06T06:45:54.337Z,6692
2017-04-06T06:47:04.698Z,6416
2017-04-06T06:48:15.034Z,6972
2017-04-06T06:49:25.396Z,6664
2017-04-06T06:50:35.723Z,6052
2017-04-06T06:51:46.060Z,5784
2017-04-06T06:52:56.407Z,6536
2017-04-06T06:54:06.757Z,6148
2017-04-06T06:55:16.790Z,6336
2017-04-06T06:56:27.132Z,7520
2017-04-06T06:57:37.150Z,7772
2017-04-06T06:58:47.199Z,7148
2017-04-06T06:59:57.524Z,7432
2017-04-06T07:01:07.550Z,6264
2017-04-06T07:02:17.880Z,6848
2017-04-06T07:03:28.209Z,5756
2017-04-06T07:04:38.551Z,6976
2017-04-06T07:05:48.580Z,6668
2017-04-06T07:06:58.925Z,5308
2017-04-06T07:08:09.275Z,5600
2017-04-06T07:09:19.621Z,4164
2017-04-06T07:10:29.953Z,5792
2017-04-06T07:11:40.279Z,5748
2017-04-06T07:12:50.618Z,5904
2017-04-06T07:14:00.968Z,6016
2017-04-06T07:15:11.308Z,6144
2017-04-06T07:16:21.675Z,5968
2017-04-06T07:17:31.383Z,5748
2017-04-06T07:18:41.715Z,5740
2017-04-06T07:19:51.742Z,5848
2017-04-06T07:21:01.741Z,5872
2017-04-06T07:22:12.116Z,6012
2017-04-06T07:23:22.142Z,5900
2017-04-06T07:24:32.174Z,6476
2017-04-06T07:25:42.205Z,7212
2017-04-06T07:26:52.235Z,8036
2017-04-06T07:28:02.262Z,8280
2017-04-06T07:29:12.609Z,7488
2017-04-06T07:30:22.316Z,9440
2017-04-06T07:31:32.664Z,9388
2017-04-06T07:32:43.014Z,8480
2017-04-06T07:33:53.396Z,9768
2017-04-06T07:35:03.108Z,7424
2017-04-06T07:36:13.460Z,7208
2017-04-06T07:37:23.491Z,7552
2017-04-06T07:38:33.841Z,9836
2017-04-06T07:39:43.876Z,7628
2017-04-06T07:40:54.217Z,7896
2017-04-06T07:42:04.593Z,8532
2017-04-06T07:43:14.917Z,8220
2017-04-06T07:44:25.244Z,8392
2017-04-06T07:45:35.585Z,8572
2017-04-06T07:46:45.620Z,9664
2017-04-06T07:47:55.677Z,9608
2017-04-06T07:49:05.701Z,10700
2017-04-06T07:50:16.040Z,10208
2017-04-06T07:51:26.389Z,7984
2017-04-06T07:52:36.739Z,7864
2017-04-06T07:53:47.082Z,7768
2017-04-06T07:54:57.413Z,7216
2017-04-06T07:56:07.760Z,7016
2017-04-06T07:57:18.100Z,7172
2017-04-06T07:58:28.131Z,7060
2017-04-06T07:59:38.456Z,7180
2017-04-06T08:00:48.803Z,7232
2017-04-06T08:01:59.163Z,7828
2017-04-06T08:03:09.187Z,7300
2017-04-06T08:04:19.210Z,7312
2017-04-06T08:05:29.240Z,6848
2017-04-06T08:06:39.590Z,6740
2017-04-06T08:07:49.911Z,6452
2017-04-06T08:08:59.982Z,6200
2017-04-06T08:10:10.015Z,6100
2017-04-06T08:11:20.338Z,6016
2017-04-06T08:12:30.386Z,5944
2017-04-06T08:13:40.117Z,5844
2017-04-06T08:14:50.435Z,5708
2017-04-06T08:16:00.188Z,5648
2017-04-06T08:17:10.516Z,5672
2017-04-06T08:18:20.852Z,5620
2017-04-06T08:19:31.185Z,5528
2017-04-06T08:20:41.516Z,5592
2017-04-06T08:21:51.868Z,5784
2017-04-06T08:23:02.204Z,6096
2017-04-06T08:24:12.219Z,6288
2017-04-06T08:25:22.559Z,6392
2017-04-06T08:26:32.595Z,6608
2017-04-06T08:27:42.925Z,6816
2017-04-06T08:28:52.968Z,6996
2017-04-06T08:30:02.988Z,7164
2017-04-06T08:31:13.317Z,7360
2017-04-06T08:32:23.893Z,7688
2017-04-06T08:33:34.223Z,8220
2017-04-06T08:34:44.573Z,8544
2017-04-06T08:35:54.603Z,8596
2017-04-06T08:37:04.952Z,8852
2017-04-06T08:38:15.293Z,9160
2017-04-06T08:39:24.988Z,9132
2017-04-06T08:40:34.385Z,8940
2017-04-06T08:41:44.737Z,8652
2017-04-06T08:42:54.759Z,8444
2017-04-06T08:44:04.800Z,8464
2017-04-06T08:45:15.125Z,8508
2017-04-06T08:46:25.148Z,8040
2017-04-06T08:47:34.853Z,7420
2017-04-06T08:48:44.858Z,7392
2017-04-06T08:49:55.213Z,7708
2017-04-06T08:51:05.551Z,7576
2017-04-06T08:52:15.895Z,7132
2017-04-06T08:53:25.929Z,7376
2017-04-06T08:54:36.280Z,7476
2017-04-06T08:55:46.652Z,7292
2017-04-06T08:56:56.678Z,7404
2017-04-06T08:58:06.707Z,7120
2017-04-06T08:59:16.752Z,7528
2017-04-06T09:00:26.767Z,7684
2017-04-06T09:01:37.113Z,7352
2017-04-06T09:02:47.445Z,7060
2017-04-06T09:03:57.780Z,7364
2017-04-06T09:05:08.128Z,7424
2017-04-06T09:06:18.467Z,9556
2017-04-06T09:07:28.490Z,8808
2017-04-06T09:08:38.524Z,9344
2017-04-06T09:09:48.878Z,9016
2017-04-06T09:10:58.911Z,6720
2017-04-06T09:12:08.668Z,6684
2017-04-06T09:13:18.721Z,6496
2017-04-06T09:14:29.087Z,6572
2017-04-06T09:15:39.112Z,5876
2017-04-06T09:16:49.449Z,5816
2017-04-06T09:17:59.811Z,7508
2017-04-06T09:19:10.190Z,10360
2017-04-06T09:20:20.549Z,11352
2017-04-06T09:21:30.913Z,6976
2017-04-06T09:22:41.282Z,8180
2017-04-06T09:23:51.611Z,6916
2017-04-06T09:25:01.639Z,8536
2017-04-06T09:26:11.673Z,7696
2017-04-06T09:27:22.011Z,9612
2017-04-06T09:28:32.356Z,8832
2017-04-06T09:29:42.701Z,7876
2017-04-06T09:30:52.725Z,7732
2017-04-06T09:32:03.098Z,7492
2017-04-06T09:33:13.133Z,7256
2017-04-06T09:34:23.494Z,7768
2017-04-06T09:35:33.841Z,6636
2017-04-06T09:36:43.956Z,7576
2017-04-06T09:37:54.303Z,10320
2017-04-06T09:39:04.642Z,10744
2017-04-06T09:40:14.676Z,11372
2017-04-06T09:41:25.020Z,12060
2017-04-06T09:42:35.062Z,13196
2017-04-06T09:43:45.099Z,13832
2017-04-06T09:44:55.449Z,14076
2017-04-06T09:46:05.786Z,14140
2017-04-06T09:47:15.823Z,14220
2017-04-06T09:48:26.194Z,14280
2017-04-06T09:49:36.546Z,13492
2017-04-06T09:50:46.255Z,10260
2017-04-06T09:51:56.266Z,12896
2017-04-06T09:53:06.002Z,11644
2017-04-06T09:54:16.522Z,8740
2017-04-06T09:55:29.113Z,9964
2017-04-06T09:56:39.534Z,10512
2017-04-06T09:57:49.904Z,11824
2017-04-06T09:59:00.246Z,11664
2017-04-06T10:00:10.608Z,11752
2017-04-06T10:01:20.645Z,10792
2017-04-06T10:02:30.680Z,9360
2017-04-06T10:03:40.414Z,10304
2017-04-06T10:04:50.495Z,9004
2017-04-06T10:06:00.859Z,10564
2017-04-06T10:07:11.203Z,11872
2017-04-06T10:08:21.264Z,8464
2017-04-06T10:09:31.627Z,11528
2017-04-06T10:10:41.978Z,11568
2017-04-06T10:11:52.310Z,11692
2017-04-06T10:13:02.342Z,10572
2017-04-06T10:14:12.381Z,6532
2017-04-06T10:15:22.403Z,6196
2017-04-06T10:16:32.802Z,6572
2017-04-06T10:17:43.163Z,7824
2017-04-06T10:18:53.516Z,7356
2017-04-06T10:20:03.861Z,5452
2017-04-06T10:21:14.209Z,5068
2017-04-06T10:22:24.600Z,4700
2017-04-06T10:23:34.766Z,4416
2017-04-06T10:24:45.108Z,4304
2017-04-06T10:25:55.154Z,5080
2017-04-06T10:27:05.490Z,5984
2017-04-06T10:28:15.213Z,6472
2017-04-06T10:29:25.550Z,12116
2017-04-06T10:30:35.895Z,11536
2017-04-06T10:31:46.244Z,7024
2017-04-06T10:32:56.642Z,5300
2017-04-06T10:34:07.030Z,5440
2017-04-06T10:35:17.364Z,5640
2017-04-06T10:36:27.735Z,5684
2017-04-06T10:37:38.082Z,5908
2017-04-06T10:38:48.125Z,6204
2017-04-06T10:39:58.466Z,6392
2017-04-06T10:41:08.498Z,6948
2017-04-06T10:42:18.845Z,7144
2017-04-06T10:43:29.190Z,7480
2017-04-06T10:44:39.223Z,7244
2017-04-06T10:45:49.250Z,6772
2017-04-06T10:46:59.608Z,6392
2017-04-06T10:48:09.630Z,6472
2017-04-06T10:49:19.649Z,7352
2017-04-06T10:50:29.694Z,11488
2017-04-06T10:51:39.746Z,10260
2017-04-06T10:52:50.101Z,8820
2017-04-06T10:54:00.148Z,13720
2017-04-06T10:55:10.521Z,14308
2017-04-06T10:56:20.558Z,11292
2017-04-06T10:57:30.942Z,8388
2017-04-06T10:58:41.306Z,7532
2017-04-06T10:59:51.649Z,7628
2017-04-06T11:01:01.987Z,6964
2017-04-06T11:02:12.350Z,6544
2017-04-06T11:03:22.741Z,6420
2017-04-06T11:04:33.082Z,6632
2017-04-06T11:05:43.129Z,6868
2017-04-06T11:06:53.466Z,6800
2017-04-06T11:08:03.792Z,6684
2017-04-06T11:09:13.820Z,6644
2017-04-06T11:10:24.161Z,11424
2017-04-06T11:11:33.889Z,6752
2017-04-06T11:12:44.237Z,6396
2017-04-06T11:13:54.585Z,6248
2017-04-06T11:15:04.989Z,6300
2017-04-06T11:16:15.349Z,6608
2017-04-06T11:17:25.690Z,6740
2017-04-06T11:18:35.703Z,6652
2017-04-06T11:19:45.743Z,6388
2017-04-06T11:20:56.095Z,5940
2017-04-06T11:22:06.458Z,6156
2017-04-06T11:23:16.819Z,6628
2017-04-06T11:24:26.841Z,7164
2017-04-06T11:25:37.189Z,7852
2017-04-06T11:26:47.243Z,7904
2017-04-06T11:27:57.591Z,8440
2017-04-06T11:29:07.943Z,8752
2017-04-06T11:30:17.981Z,14540
2017-04-06T11:31:27.732Z,9184
2017-04-06T11:32:37.780Z,7948
2017-04-06T11:33:48.120Z,7340
2017-04-06T11:34:58.448Z,7508
2017-04-06T11:36:08.795Z,7688
2017-04-06T11:37:19.135Z,7640
2017-04-06T11:38:29.191Z,6984
2017-04-06T11:39:39.530Z,6184
2017-04-06T11:40:49.247Z,5580
2017-04-06T11:41:59.613Z,5044
2017-04-06T11:43:09.666Z,4580
2017-04-06T11:44:19.999Z,4516
2017-04-06T11:45:30.347Z,4540
2017-04-06T11:46:40.696Z,4536
2017-04-06T11:47:50.725Z,4668
2017-04-06T11:49:01.071Z,5100
2017-04-06T11:50:11.430Z,5920
2017-04-06T11:51:21.762Z,6856
2017-04-06T11:52:32.097Z,7672
2017-04-06T11:53:42.120Z,8060
2017-04-06T11:54:52.449Z,8004
2017-04-06T11:56:02.532Z,8192
2017-04-06T11:57:12.899Z,8416
2017-04-06T11:58:22.612Z,8932
2017-04-06T11:59:32.967Z,8640
2017-04-06T12:00:43.005Z,8836
2017-04-06T12:01:53.111Z,9120
2017-04-06T12:03:03.440Z,10124
2017-04-06T12:04:12.838Z,11520
2017-04-06T12:05:22.874Z,15648
2017-04-06T12:06:33.242Z,10588
2017-04-06T12:07:42.714Z,14908
2017-04-06T12:08:53.047Z,12496
2017-04-06T12:10:03.057Z,8348
2017-04-06T12:11:13.411Z,7064
2017-04-06T12:12:23.763Z,6636
2017-04-06T12:13:33.947Z,6460
2017-04-06T12:14:44.285Z,6680
2017-04-06T12:15:54.622Z,6656
2017-04-06T12:17:04.699Z,6724
2017-04-06T12:18:15.098Z,7144
2017-04-06T12:19:25.167Z,13628
2017-04-06T12:20:35.582Z,9464
2017-04-06T12:21:45.659Z,13844
2017-04-06T12:22:55.745Z,10056
2017-04-06T12:24:06.168Z,7808
2017-04-06T12:25:16.514Z,8188
2017-04-06T12:26:26.852Z,8488
2017-04-06T12:27:37.197Z,8740
2017-04-06T12:28:47.537Z,7892
2017-04-06T12:29:57.893Z,7080
2017-04-06T12:31:08.275Z,6548
2017-04-06T12:32:18.645Z,5684
2017-04-06T12:33:28.692Z,4804
2017-04-06T12:34:39.023Z,4372
2017-04-06T12:35:49.383Z,4496
2017-04-06T12:36:59.796Z,4100
2017-04-06T12:38:10.150Z,4092
2017-04-06T12:39:20.177Z,4248
2017-04-06T12:40:30.200Z,8956
2017-04-06T12:41:40.582Z,10716
2017-04-06T12:42:50.361Z,7064
2017-04-06T12:44:00.383Z,4828
2017-04-06T12:45:11.329Z,4440
2017-04-06T12:46:21.759Z,5088
2017-04-06T12:47:32.129Z,7016
2017-04-06T12:48:42.522Z,8432
2017-04-06T12:49:52.591Z,9568
2017-04-06T12:51:02.963Z,9492
2017-04-06T12:52:13.330Z,9548
2017-04-06T12:53:23.393Z,9624
2017-04-06T12:54:33.781Z,9664
2017-04-06T12:55:43.866Z,9856
2017-04-06T12:56:53.616Z,10020
2017-04-06T12:58:03.994Z,10484
2017-04-06T12:59:14.056Z,10544
2017-04-06T13:00:24.478Z,5080
2017-04-06T13:01:34.535Z,8388
2017-04-06T13:02:44.950Z,9824
2017-04-06T13:03:55.332Z,9860
2017-04-06T13:05:05.714Z,4616
2017-04-06T13:06:16.089Z,9848
2017-04-06T13:07:26.530Z,9656
2017-04-06T13:08:36.914Z,10516
2017-04-06T13:09:47.280Z,10316
2017-04-06T13:10:57.628Z,10244
2017-04-06T13:12:07.973Z,10132
2017-04-06T13:13:18.323Z,5180
2017-04-06T13:14:28.679Z,4736
2017-04-06T13:15:39.048Z,9536
2017-04-06T13:16:49.142Z,9240
2017-04-06T13:17:59.513Z,9152
2017-04-06T13:19:09.530Z,8908
2017-04-06T13:20:19.586Z,9044
2017-04-06T13:21:29.944Z,9428
2017-04-06T13:22:40.292Z,10064
2017-04-06T13:23:50.639Z,10484
2017-04-06T13:25:01.000Z,10840
2017-04-06T13:26:11.357Z,10676
2017-04-06T13:27:21.711Z,11812
2017-04-06T13:28:32.108Z,12056
2017-04-06T13:29:42.440Z,12564
2017-04-06T13:30:52.488Z,12768
2017-04-06T13:32:02.567Z,7736
2017-04-06T13:33:12.910Z,11184
2017-04-06T13:34:22.975Z,10160
2017-04-06T13:35:33.030Z,7212
2017-04-06T13:36:43.391Z,6604
2017-04-06T13:37:53.762Z,6456
2017-04-06T13:39:04.129Z,6720
2017-04-06T13:40:14.483Z,6936
2017-04-06T13:41:24.885Z,8320
2017-04-06T13:42:35.243Z,5248
2017-04-06T13:43:45.587Z,5420
2017-04-06T13:44:55.632Z,10476
2017-04-06T13:46:05.658Z,10668
2017-04-06T13:47:16.012Z,11256
2017-04-06T13:48:26.363Z,7216
2017-04-06T13:49:36.715Z,7068
2017-04-06T13:50:47.067Z,10672
2017-04-06T13:51:57.410Z,6576
2017-04-06T13:53:07.787Z,10232
2017-04-06T13:54:17.833Z,9956
2017-04-06T13:55:28.185Z,9732
2017-04-06T13:56:38.196Z,7600
2017-04-06T13:57:48.226Z,5428
2017-04-06T13:58:58.590Z,6352
2017-04-06T14:00:08.630Z,9860
2017-04-06T14:01:18.982Z,6208
2017-04-06T14:02:29.069Z,9424
2017-04-06T14:03:39.432Z,9088
2017-04-06T14:04:49.770Z,9092
2017-04-06T14:06:00.116Z,8740
2017-04-06T14:07:10.469Z,8540
2017-04-06T14:08:20.522Z,6720
2017-04-06T14:09:30.892Z,4164
2017-04-06T14:10:40.925Z,4592
2017-04-06T14:11:51.278Z,9188
2017-04-06T14:13:01.310Z,4932
2017-04-06T14:14:11.676Z,4860
2017-04-06T14:15:22.032Z,5148
2017-04-06T14:16:32.363Z,5044
2017-04-06T14:17:42.729Z,4968
2017-04-06T14:18:53.074Z,5420
2017-04-06T14:20:03.436Z,5252
2017-04-06T14:21:13.796Z,6468
2017-04-06T14:22:24.179Z,8912
2017-04-06T14:23:34.517Z,5728
2017-04-06T14:24:44.878Z,4132
2017-04-06T14:25:55.227Z,3864
2017-04-06T14:27:05.852Z,3752
2017-04-06T14:28:16.441Z,3400
2017-04-06T14:29:26.468Z,3464
2017-04-06T14:30:36.513Z,3624
2017-04-06T14:31:46.871Z,5724
2017-04-06T14:32:57.244Z,6868
2017-04-06T14:34:07.568Z,5328
2017-04-06T14:35:17.936Z,3400
2017-04-06T14:36:27.976Z,3524
2017-04-06T14:37:38.556Z,6928
2017-04-06T14:38:48.906Z,3652
2017-04-06T14:39:58.996Z,3184
2017-04-06T14:41:09.331Z,3056
2017-04-06T14:42:19.048Z,2976
2017-04-06T14:43:29.071Z,2856
2017-04-06T14:44:39.441Z,2484
2017-04-06T14:45:49.544Z,2592
2017-04-06T14:46:59.566Z,2832
2017-04-06T14:48:09.609Z,3452
2017-04-06T14:49:19.950Z,3336
2017-04-06T14:50:30.302Z,6216
2017-04-06T14:51:40.635Z,6380
2017-04-06T14:52:50.984Z,6704
2017-04-06T14:54:01.020Z,7036
2017-04-06T14:55:11.070Z,7404
2017-04-06T14:56:21.133Z,7384
2017-04-06T14:57:30.839Z,7280
2017-04-06T14:58:40.876Z,6340
2017-04-06T14:59:51.218Z,5156
2017-04-06T15:01:01.574Z,5500
2017-04-06T15:02:12.187Z,6316
2017-04-06T15:03:22.766Z,8104
2017-04-06T15:04:33.120Z,7576
2017-04-06T15:05:43.167Z,6764
2017-04-06T15:06:53.195Z,6616
2017-04-06T15:08:03.225Z,6336
2017-04-06T15:09:13.582Z,5848
2017-04-06T15:10:23.930Z,5520
2017-04-06T15:11:33.964Z,5368
2017-04-06T15:12:43.982Z,4744
2017-04-06T15:13:54.001Z,5644
2017-04-06T15:15:04.370Z,5816
2017-04-06T15:16:14.427Z,3788
2017-04-06T15:17:24.774Z,3720
2017-04-06T15:18:35.118Z,3648
2017-04-06T15:19:45.457Z,4252
2017-04-06T15:20:55.825Z,3412
2017-04-06T15:22:06.175Z,3084
2017-04-06T15:23:16.219Z,2620
2017-04-06T15:24:26.569Z,2300
2017-04-06T15:25:36.911Z,2112
2017-04-06T15:26:47.182Z,2124
2017-04-06T15:27:57.540Z,2404
2017-04-06T15:29:06.944Z,2448
2017-04-06T15:30:17.272Z,2812
2017-04-06T15:31:27.024Z,4872
2017-04-06T15:32:37.378Z,5908
2017-04-06T15:33:47.730Z,6128
2017-04-06T15:34:57.751Z,5860
2017-04-06T15:36:08.103Z,5516
2017-04-06T15:37:18.440Z,5204
2017-04-06T15:38:28.825Z,5044
2017-04-06T15:39:39.169Z,4896
2017-04-06T15:40:49.519Z,4812
2017-04-06T15:41:59.861Z,2916
2017-04-06T15:43:10.219Z,3636
2017-04-06T15:44:20.259Z,3440
2017-04-06T15:45:30.612Z,3680
2017-04-06T15:46:40.657Z,2132
2017-04-06T15:47:51.052Z,2168
2017-04-06T15:49:01.103Z,2464
2017-04-06T15:50:11.460Z,2640
2017-04-06T15:51:21.820Z,2732
2017-04-06T15:52:31.557Z,3444
2017-04-06T15:53:41.894Z,4268
2017-04-06T15:54:52.236Z,4624
2017-04-06T15:56:02.273Z,4804
2017-04-06T15:57:12.304Z,4832
2017-04-06T15:58:22.660Z,4740
2017-04-06T15:59:33.077Z,4496
2017-04-06T16:00:43.457Z,4288
2017-04-06T16:01:53.789Z,4176
2017-04-06T16:03:04.167Z,4020
2017-04-06T16:04:14.494Z,3776
2017-04-06T16:05:24.830Z,2524
2017-04-06T16:06:35.163Z,2956
2017-04-06T16:07:45.278Z,1868
2017-04-06T16:08:55.928Z,1740
2017-04-06T16:10:06.281Z,1856
2017-04-06T16:11:16.628Z,2748
2017-04-06T16:12:26.972Z,3120
2017-04-06T16:13:37.337Z,2604
2017-04-06T16:14:47.035Z,3200
2017-04-06T16:15:57.408Z,2608
2017-04-06T16:17:07.748Z,3376
2017-04-06T16:18:18.094Z,2544
2017-04-06T16:19:28.130Z,2472
2017-04-06T16:20:38.474Z,2144
2017-04-06T16:21:48.504Z,1868
2017-04-06T16:22:58.729Z,1780
2017-04-06T16:24:08.755Z,1796
2017-04-06T16:25:19.100Z,1860
2017-04-06T16:26:29.448Z,1980
2017-04-06T16:27:39.488Z,2040